Time;durP1;ratioP1;P1;durP2;ratioP2;P2;SDS_P1;SDS_P2;PMS_P1;PMS_P2;Temp;Humidity;BMP_temperature;BMP_pressure;BME280_temperature;BME280_humidity;BME280_pressure;Samples;Min_cycle;Max_cycle;Signal;HPM_P1;HPM_P2
2022/07/29 00:01:08;;;;;;;7.67;4.58;;;;;;;17.34;65.83;98791.07;1648089;86;25692;-56
2022/07/29 00:03:34;;;;;;;7.00;5.05;;;;;;;17.34;65.87;98786.92;1648024;87;25682;-56
2022/07/29 00:06:00;;;;;;;7.12;4.55;;;;;;;17.33;65.65;98786.70;1648112;87;27405;-64
2022/07/29 00:08:26;;;;;;;6.62;4.58;;;;;;;17.28;65.84;98785.81;1648141;86;25458;-63
2022/07/29 00:10:52;;;;;;;8.30;4.60;;;;;;;17.26;65.93;98785.92;1647986;86;25687;-66
2022/07/29 00:13:18;;;;;;;9.53;4.17;;;;;;;17.24;66.19;98796.58;1647918;87;25670;-56
2022/07/29 00:15:44;;;;;;;6.35;4.45;;;;;;;17.17;66.48;98799.38;1648255;87;25418;-56
2022/07/29 00:18:10;;;;;;;7.35;4.10;;;;;;;17.11;66.92;98795.26;1647937;86;27419;-56
2022/07/29 00:20:36;;;;;;;6.15;4.72;;;;;;;17.08;66.42;98792.38;1647935;87;25866;-56
2022/07/29 00:23:02;;;;;;;4.78;4.28;;;;;;;17.09;66.24;98792.59;1647831;87;25514;-66
2022/07/29 00:25:28;;;;;;;7.10;4.50;;;;;;;17.09;66.47;98787.88;1647606;87;25805;-67
2022/07/29 00:27:55;;;;;;;8.25;4.50;;;;;;;17.06;66.92;98787.98;1647875;87;25513;-59
2022/07/29 00:30:22;;;;;;;7.55;4.60;;;;;;;17.05;67.28;98790.53;1647161;86;27572;-66
2022/07/29 00:32:48;;;;;;;4.53;4.10;;;;;;;17.05;67.16;98780.03;1645188;87;25748;-65
2022/07/29 00:37:59;;;;;;;8.80;4.95;;;;;;;17.02;67.21;98777.97;1644836;87;25507;-66
2022/07/29 00:40:25;;;;;;;6.35;4.60;;;;;;;17.02;67.01;98774.63;1645169;87;25652;-60
2022/07/29 00:42:52;;;;;;;7.10;4.70;;;;;;;17.01;67.72;98774.98;1644727;87;27451;-66
2022/07/29 00:45:19;;;;;;;5.20;4.70;;;;;;;17.04;67.33;98779.81;1645060;87;25847;-66
2022/07/29 00:47:46;;;;;;;5.60;4.12;;;;;;;17.08;67.07;98777.97;1645059;87;25482;-66
2022/07/29 00:50:13;;;;;;;5.72;4.22;;;;;;;17.08;67.45;98779.92;1644749;87;25753;-65
2022/07/29 00:52:41;;;;;;;8.30;4.15;;;;;;;17.05;67.72;98783.61;1645171;87;25633;-63
2022/07/29 00:55:12;;;;;;;6.47;4.20;;;;;;;17.02;67.78;98782.13;1645089;87;27469;-66
2022/07/29 00:57:40;;;;;;;4.97;4.35;;;;;;;16.99;67.83;98777.30;1645018;87;25506;-50
2022/07/29 01:00:12;;;;;;;10.23;4.95;;;;;;;16.96;67.94;98774.66;1645038;87;25720;-55
2022/07/29 01:02:39;;;;;;;6.20;4.58;;;;;;;16.95;68.02;98769.48;1644830;87;25754;-55
2022/07/29 01:05:07;;;;;;;5.47;4.12;;;;;;;16.94;67.72;98771.44;1644905;87;25688;-55
2022/07/29 01:07:36;;;;;;;9.93;4.60;;;;;;;16.95;67.71;98768.09;1644809;87;27488;-56
2022/07/29 01:10:09;;;;;;;8.65;4.10;;;;;;;16.95;67.87;98767.50;1644892;87;25719;-52
2022/07/29 01:12:37;;;;;;;5.40;4.47;;;;;;;16.93;67.90;98767.85;1645153;87;25695;-53
2022/07/29 01:15:07;;;;;;;6.40;4.00;;;;;;;16.92;67.53;98766.25;1645121;87;26273;-53
2022/07/29 01:17:44;;;;;;;4.53;4.10;;;;;;;16.92;67.99;98759.33;1645486;87;25455;-53
2022/07/29 01:20:41;;;;;;;7.37;4.10;;;;;;;16.93;67.69;98767.06;1645367;87;27560;-53
2022/07/29 01:23:18;;;;;;;5.83;4.17;;;;;;;16.88;68.04;98759.83;1644795;87;25464;-54
2022/07/29 01:26:13;;;;;;;12.78;4.97;;;;;;;16.84;68.01;98767.20;1643532;87;25684;-54
2022/07/29 01:28:54;;;;;;;9.15;4.35;;;;;;;16.80;68.12;98766.31;1645376;87;25699;-62
2022/07/29 01:31:34;;;;;;;8.58;4.42;;;;;;;16.78;68.28;98754.20;1644748;87;25603;-63
2022/07/29 01:34:05;;;;;;;6.08;4.78;;;;;;;16.78;68.35;98753.42;1650899;86;27237;-64
2022/07/29 01:36:42;;;;;;;7.65;4.47;;;;;;;16.75;68.34;98754.91;1650859;86;25758;-64
2022/07/29 01:39:20;;;;;;;5.85;4.15;;;;;;;16.77;68.39;98752.61;1650891;86;25534;-59
2022/07/29 01:42:12;;;;;;;5.15;3.80;;;;;;;16.76;68.33;98759.88;1650825;86;25741;-55
2022/07/29 01:44:52;;;;;;;7.60;4.90;;;;;;;16.76;68.32;98760.70;1650786;86;25473;-54
2022/07/29 01:47:24;;;;;;;7.47;4.45;;;;;;;16.71;68.52;98757.35;1650693;86;29493;-54
2022/07/29 01:49:54;;;;;;;8.55;4.45;;;;;;;16.67;68.40;98758.06;1651234;86;25772;-54
2022/07/29 01:52:57;;;;;;;8.23;4.47;;;;;;;16.67;68.41;98754.50;1650864;86;25648;-56
2022/07/29 01:55:31;;;;;;;6.25;3.87;;;;;;;16.64;68.51;98752.44;1650794;86;25769;-63
2022/07/29 01:57:59;;;;;;;5.62;4.10;;;;;;;16.62;68.61;98749.21;1650152;86;25546;-63
2022/07/29 02:00:26;;;;;;;7.08;4.33;;;;;;;16.61;68.64;98751.77;1650836;86;28429;-63
2022/07/29 02:02:54;;;;;;;3.33;2.62;;;;;;;16.61;68.39;98743.46;1650534;86;25655;-58
2022/07/29 02:05:23;;;;;;;6.37;3.37;;;;;;;16.56;68.58;98743.92;1650904;86;25674;-65
2022/07/29 02:07:52;;;;;;;8.28;4.22;;;;;;;16.55;68.45;98740.94;1651037;86;26276;-56
2022/07/29 02:10:24;;;;;;;5.60;4.17;;;;;;;16.55;68.49;98740.94;1650173;86;25651;-62
2022/07/29 02:12:52;;;;;;;5.97;3.67;;;;;;;16.52;68.49;98738.09;1644919;87;28144;-65
2022/07/29 02:15:19;;;;;;;5.45;4.08;;;;;;;16.50;68.44;98742.59;1645258;87;25648;-64
2022/07/29 02:17:59;;;;;;;5.97;4.33;;;;;;;16.52;68.25;98736.70;1645155;87;25474;-64
2022/07/29 02:20:28;;;;;;;5.25;3.77;;;;;;;16.48;68.18;98737.98;1643832;87;27826;-64
2022/07/29 02:22:55;;;;;;;5.15;4.22;;;;;;;16.46;68.09;98736.13;1645289;87;25665;-54
2022/07/29 02:25:24;;;;;;;8.60;3.70;;;;;;;16.47;68.01;98736.37;1644880;87;27443;-54
2022/07/29 02:27:52;;;;;;;4.87;3.30;;;;;;;16.49;67.93;98735.42;1644795;87;25458;-53
2022/07/29 02:30:22;;;;;;;4.70;3.45;;;;;;;16.45;67.82;98723.47;1645218;87;25716;-54
2022/07/29 02:32:49;;;;;;;7.20;4.00;;;;;;;16.42;67.85;98726.94;1645141;86;25728;-53
2022/07/29 02:35:17;;;;;;;8.10;3.85;;;;;;;16.43;67.67;98719.67;1644864;87;25685;-53
2022/07/29 02:38:49;;;;;;;7.42;3.42;;;;;;;16.42;67.54;98722.22;1645227;87;27635;-54
2022/07/29 02:40:15;;;;;;;10.48;4.25;;;;;;;16.38;67.64;98721.29;1648053;85;25637;-54
2022/07/29 02:42:44;;;;;;;6.22;3.40;;;;;;;16.40;67.55;98719.55;1645104;87;25656;-53
2022/07/29 02:45:11;;;;;;;7.58;4.00;;;;;;;16.41;67.39;98719.80;1645091;87;25849;-52
2022/07/29 02:47:42;;;;;;;4.92;3.60;;;;;;;16.43;67.18;98721.05;1645024;87;25657;-54
2022/07/29 02:50:16;;;;;;;;;;;;;;;16.44;67.26;98721.87;1647806;87;27386;-64
2022/07/29 02:53:03;;;;;;;4.72;3.62;;;;;;;16.43;67.03;98716.09;1644080;87;25537;-64
2022/07/29 02:55:50;;;;;;;6.50;3.45;;;;;;;16.41;67.05;98720.59;1590915;90;25591;-65
2022/07/29 02:58:36;;;;;;;6.80;4.03;;;;;;;16.39;67.18;98722.92;1587464;90;25700;-62
2022/07/29 03:01:11;;;;;;;7.55;3.70;;;;;;;16.41;67.03;98725.34;1590588;90;25725;-62
2022/07/29 03:03:40;;;;;;;6.00;3.50;;;;;;;16.40;67.10;98725.91;1590592;90;27460;-64
2022/07/29 03:06:07;;;;;;;6.50;3.95;;;;;;;16.37;67.10;98723.84;1590819;90;25719;-54
2022/07/29 03:08:35;;;;;;;4.35;3.30;;;;;;;16.35;67.03;98720.61;1590934;90;25567;-56
2022/07/29 03:11:02;;;;;;;7.12;3.85;;;;;;;16.33;66.98;98719.36;1590743;90;26734;-54
2022/07/29 03:13:30;;;;;;;9.18;3.40;;;;;;;16.34;66.83;98717.62;1590752;90;25521;-53
2022/07/29 03:15:58;;;;;;;8.65;3.75;;;;;;;16.35;66.88;98719.23;1590662;90;28311;-54
2022/07/29 03:18:25;;;;;;;6.25;3.20;;;;;;;16.34;66.73;98716.25;1590802;90;25701;-53
2022/07/29 03:20:52;;;;;;;8.40;3.47;;;;;;;16.37;66.62;98715.55;1590575;90;25771;-54
2022/07/29 03:23:23;;;;;;;4.90;2.80;;;;;;;16.37;66.70;98711.96;1590800;90;25724;-54
2022/07/29 03:25:50;;;;;;;7.20;3.60;;;;;;;16.35;66.53;98714.30;1590708;90;25687;-55
2022/07/29 03:28:17;;;;;;;8.88;3.90;;;;;;;16.35;66.46;98719.23;1590893;90;27369;-64
2022/07/29 03:30:44;;;;;;;8.53;3.70;;;;;;;16.35;66.53;98713.70;1637320;87;25901;-60
2022/07/29 03:33:10;;;;;;;7.50;3.37;;;;;;;16.33;66.55;98714.64;1645030;87;25597;-64
2022/07/29 03:35:36;;;;;;;4.60;3.40;;;;;;;16.32;66.41;98713.61;1644798;87;25743;-64
2022/07/29 03:38:03;;;;;;;4.78;3.25;;;;;;;16.31;66.42;98722.47;1645395;87;25750;-63
2022/07/29 03:41:01;;;;;;;5.15;3.70;;;;;;;16.31;66.34;98718.33;1644812;87;27478;-61
2022/07/29 03:43:35;;;;;;;5.10;2.90;;;;;;;16.35;66.32;98717.84;1645128;87;26089;-63
2022/07/29 03:46:04;;;;;;;3.85;2.85;;;;;;;16.33;66.20;98720.17;1645157;87;25768;-63
2022/07/29 03:48:33;;;;;;;6.23;3.23;;;;;;;16.36;66.26;98722.24;1645064;87;27802;-61
2022/07/29 03:50:59;;;;;;;6.03;3.15;;;;;;;16.39;66.26;98725.69;1645116;87;25515;-52
2022/07/29 03:53:25;;;;;;;3.95;2.52;;;;;;;16.43;66.18;98723.81;1645181;87;27627;-54
2022/07/29 03:55:55;;;;;;;6.12;3.50;;;;;;;16.45;66.09;98720.70;1645262;87;25452;-51
2022/07/29 03:58:23;;;;;;;9.25;3.33;;;;;;;16.50;66.07;98730.14;1644968;87;25499;-52
2022/07/29 04:00:50;;;;;;;8.70;3.67;;;;;;;16.55;66.02;98723.53;1645053;87;25690;-50
2022/07/29 04:03:16;;;;;;;6.40;3.27;;;;;;;16.60;65.93;98731.58;1645031;87;25657;-52
2022/07/29 04:05:43;;;;;;;5.72;3.15;;;;;;;16.62;65.59;98723.74;1645057;87;27557;-49
2022/07/29 04:08:08;;;;;;;7.67;3.20;;;;;;;16.65;65.59;98715.31;1645106;87;25779;-52
2022/07/29 04:10:35;;;;;;;5.60;3.50;;;;;;;16.71;65.47;98724.97;1645207;87;25676;-61
2022/07/29 04:13:01;;;;;;;4.97;2.35;;;;;;;16.76;65.34;98727.48;1645066;87;25630;-61
2022/07/29 04:15:28;;;;;;;6.75;3.30;;;;;;;16.78;65.33;98727.13;1644955;87;25695;-62
2022/07/29 04:17:55;;;;;;;4.42;3.08;;;;;;;16.81;65.38;98723.62;1645119;87;28465;-62
2022/07/29 04:20:21;;;;;;;7.03;3.52;;;;;;;16.89;65.14;98720.47;1644926;87;25667;-62
2022/07/29 04:22:48;;;;;;;5.55;3.30;;;;;;;16.96;64.97;98724.02;1644830;87;25446;-65
2022/07/29 04:25:14;;;;;;;4.80;3.20;;;;;;;16.97;64.97;98716.75;1645550;87;25922;-65
2022/07/29 04:27:59;;;;;;;5.97;3.70;;;;;;;17.03;65.02;98714.52;1644904;87;25640;-64
2022/07/29 04:30:09;;;;;;;4.33;3.35;;;;;;;17.08;64.72;98714.29;1647795;86;25913;-66
2022/07/29 04:32:35;;;;;;;4.75;3.30;;;;;;;17.09;64.54;98707.58;1641364;86;25724;-64
2022/07/29 04:35:01;;;;;;;7.22;3.60;;;;;;;17.10;64.51;98699.48;1636964;87;25626;-53
2022/07/29 04:37:27;;;;;;;6.47;2.87;;;;;;;17.16;64.65;98700.05;1636895;87;26531;-53
2022/07/29 04:39:53;;;;;;;3.47;2.62;;;;;;;17.21;64.39;98702.53;1636877;87;25638;-52
2022/07/29 04:42:19;;;;;;;5.30;3.35;;;;;;;17.23;64.28;98699.41;1637001;87;27459;-57
2022/07/29 04:44:45;;;;;;;7.70;3.20;;;;;;;17.25;64.31;98699.30;1636820;87;25739;-57
2022/07/29 04:47:12;;;;;;;6.70;3.40;;;;;;;17.33;64.26;98703.61;1636888;87;25673;-54
2022/07/29 04:49:39;;;;;;;4.05;3.08;;;;;;;17.40;64.12;98709.32;1636532;87;25745;-57
2022/07/29 04:52:06;;;;;;;6.00;2.90;;;;;;;17.48;63.88;98704.75;1637215;87;25656;-54
2022/07/29 04:54:33;;;;;;;5.22;2.85;;;;;;;17.54;63.61;98706.09;1637035;87;27322;-56
2022/07/29 04:56:59;;;;;;;9.65;3.12;;;;;;;17.63;63.57;98701.16;1636775;87;25470;-58
2022/07/29 04:59:26;;;;;;;7.62;2.98;;;;;;;17.75;63.58;98702.20;1636857;87;25629;-56
2022/07/29 05:01:53;;;;;;;6.08;3.05;;;;;;;17.80;63.28;98699.97;1637016;87;26320;-65
2022/07/29 05:04:19;;;;;;;4.95;2.80;;;;;;;17.91;63.05;98700.78;1636858;87;25684;-65
2022/07/29 05:06:45;;;;;;;6.10;3.05;;;;;;;17.96;62.81;98695.54;1636958;87;27457;-65
2022/07/29 05:09:11;;;;;;;5.53;3.10;;;;;;;18.03;62.80;98705.39;1636739;87;25626;-63
2022/07/29 05:11:37;;;;;;;5.70;3.17;;;;;;;18.13;62.61;98709.60;1637100;87;25458;-62
2022/07/29 05:14:03;;;;;;;4.37;2.60;;;;;;;18.26;62.28;98714.41;1637059;87;25731;-61
2022/07/29 05:16:29;;;;;;;4.20;3.10;;;;;;;18.26;61.90;98716.61;1637273;86;25679;-54
2022/07/29 05:18:56;;;;;;;5.55;2.87;;;;;;;18.30;62.21;98718.05;1637043;87;27388;-54
2022/07/29 05:21:22;;;;;;;4.85;2.80;;;;;;;18.46;62.11;98720.77;1637005;87;25664;-54
2022/07/29 05:23:48;;;;;;;6.67;3.33;;;;;;;18.54;61.37;98715.56;1637037;87;25495;-55
2022/07/29 05:26:14;;;;;;;5.97;3.20;;;;;;;18.60;61.67;98713.31;1636943;87;26604;-55
2022/07/29 05:28:40;;;;;;;4.80;2.42;;;;;;;18.64;61.18;98710.59;1637122;87;25680;-55
2022/07/29 05:31:14;;;;;;;5.50;2.98;;;;;;;18.54;61.20;98710.62;1636825;87;27434;-54
2022/07/29 05:33:40;;;;;;;8.25;2.85;;;;;;;18.41;61.63;98712.16;1642760;86;25487;-65
2022/07/29 05:36:07;;;;;;;5.03;3.20;;;;;;;18.39;61.91;98716.47;1645112;87;25493;-63
2022/07/29 05:38:35;;;;;;;7.67;3.25;;;;;;;18.38;62.10;98719.01;1644980;87;25803;-63
2022/07/29 05:41:02;;;;;;;7.97;2.62;;;;;;;18.36;62.09;98717.20;1645288;87;25600;-59
2022/07/29 05:43:29;;;;;;;4.58;3.20;;;;;;;18.37;62.18;98707.70;1645287;87;28239;-64
2022/07/29 05:45:55;;;;;;;6.55;2.77;;;;;;;18.38;62.42;98711.50;1645170;87;25868;-58
2022/07/29 05:48:22;;;;;;;5.20;3.45;;;;;;;18.43;62.44;98715.95;1645139;87;25679;-62
2022/07/29 05:50:48;;;;;;;4.62;2.80;;;;;;;18.51;62.48;98705.20;1644783;87;25722;-65
2022/07/29 05:53:14;;;;;;;5.25;2.52;;;;;;;18.71;62.14;98709.33;1644961;87;25689;-63
2022/07/29 05:55:40;;;;;;;3.47;2.92;;;;;;;18.82;61.72;98706.76;1645254;87;27488;-58
2022/07/29 05:58:06;;;;;;;4.05;2.65;;;;;;;18.85;61.58;98700.47;1644833;87;25466;-64
2022/07/29 06:00:33;;;;;;;5.37;2.65;;;;;;;18.99;62.23;98692.17;1645243;87;25728;-54
2022/07/29 06:02:59;;;;;;;4.05;2.90;;;;;;;19.16;60.88;98693.11;1645076;87;25960;-54
2022/07/29 06:05:26;;;;;;;4.83;3.25;;;;;;;19.27;60.89;98693.87;1645214;87;25626;-55
2022/07/29 06:07:57;;;;;;;6.62;2.60;;;;;;;19.42;60.73;98698.48;1645423;87;27661;-55
2022/07/29 06:10:31;;;;;;;4.30;2.83;;;;;;;19.61;59.94;98710.69;1644853;87;25620;-56
2022/07/29 06:12:57;;;;;;;5.30;2.98;;;;;;;19.59;60.13;98715.80;1645253;87;25490;-54
2022/07/29 06:15:23;;;;;;;5.28;3.37;;;;;;;19.58;60.45;98710.05;1645116;87;26500;-54
2022/07/29 06:17:49;;;;;;;4.67;3.30;;;;;;;19.59;60.67;98706.08;1645380;87;25496;-55
2022/07/29 06:20:15;;;;;;;5.15;3.05;;;;;;;19.67;60.41;98702.82;1644778;87;27431;-56
2022/07/29 06:22:42;;;;;;;3.52;2.20;;;;;;;19.81;60.21;98713.36;1644940;87;25696;-55
2022/07/29 06:25:09;;;;;;;6.40;2.90;;;;;;;20.08;60.22;98712.53;1644848;87;25656;-55
2022/07/29 06:27:36;;;;;;;4.97;2.55;;;;;;;20.36;59.61;98714.09;1645219;87;25651;-55
2022/07/29 06:30:06;;;;;;;6.30;2.98;;;;;;;20.43;59.15;98717.76;1644908;87;25511;-55
2022/07/29 06:32:34;;;;;;;5.85;2.95;;;;;;;20.41;58.84;98715.94;1645235;87;25635;-65
2022/07/29 06:35:01;;;;;;;4.10;2.83;;;;;;;20.49;59.19;98721.00;1625054;87;25640;-62
2022/07/29 06:37:27;;;;;;;3.52;2.70;;;;;;;20.62;58.82;98721.55;1647685;87;25736;-57
2022/07/29 06:40:59;;;;;;;3.90;3.00;;;;;;;20.71;58.35;98718.46;1647762;87;25747;-61
2022/07/29 06:42:22;;;;;;;4.30;2.80;;;;;;;20.80;58.37;98720.36;1644431;87;25421;-55
2022/07/29 06:44:49;;;;;;;3.27;1.80;;;;;;;21.12;57.50;98733.60;1647907;87;27492;-55
2022/07/29 06:47:15;;;;;;;3.47;2.45;;;;;;;21.08;57.17;98729.41;1647541;87;25530;-56
2022/07/29 06:49:42;;;;;;;4.33;2.70;;;;;;;21.13;57.37;98726.25;1647888;87;25640;-56
2022/07/29 06:52:09;;;;;;;6.22;3.20;;;;;;;21.26;57.27;98726.78;1647978;87;26549;-56
2022/07/29 06:54:36;;;;;;;8.93;3.05;;;;;;;21.29;57.25;98723.22;1647749;87;25938;-57
2022/07/29 06:57:03;;;;;;;3.67;2.67;;;;;;;21.33;57.37;98728.03;1647911;87;27743;-64
2022/07/29 06:59:30;;;;;;;7.60;3.02;;;;;;;21.31;57.16;98721.45;1647775;86;25483;-63
2022/07/29 07:01:56;;;;;;;4.65;2.87;;;;;;;21.41;57.03;98727.70;1647733;87;25628;-65
2022/07/29 07:04:23;;;;;;;5.15;2.90;;;;;;;21.65;56.79;98721.91;1647722;87;25854;-59
2022/07/29 07:06:50;;;;;;;6.85;3.10;;;;;;;21.86;56.62;98722.66;1647931;87;25624;-64
2022/07/29 07:09:16;;;;;;;6.08;3.27;;;;;;;21.96;56.26;98721.72;1648100;87;27475;-62
2022/07/29 07:11:43;;;;;;;4.03;2.60;;;;;;;22.18;55.60;98715.65;1647640;87;25658;-61
2022/07/29 07:14:09;;;;;;;4.35;2.83;;;;;;;22.34;55.42;98719.52;1647876;87;25684;-57
2022/07/29 07:16:36;;;;;;;4.70;2.77;;;;;;;22.46;55.52;98721.75;1647861;87;26220;-61
2022/07/29 07:19:02;;;;;;;3.75;3.00;;;;;;;22.35;54.80;98719.72;1647656;87;25499;-57
2022/07/29 07:21:29;;;;;;;5.55;2.85;;;;;;;22.31;54.54;98711.93;1647958;86;27602;-59
2022/07/29 07:23:55;;;;;;;5.10;2.90;;;;;;;22.21;54.74;98719.05;1647619;87;25518;-57
2022/07/29 07:26:22;;;;;;;4.45;3.00;;;;;;;22.21;55.10;98714.87;1647587;87;25466;-56
2022/07/29 07:28:48;;;;;;;5.22;3.15;;;;;;;22.37;55.41;98713.16;1647917;87;25837;-57
2022/07/29 07:31:15;;;;;;;5.22;2.90;;;;;;;22.73;54.57;98712.48;1647705;87;25637;-57
2022/07/29 07:33:42;;;;;;;5.22;2.95;;;;;;;22.94;54.29;98719.30;1647799;86;27487;-56
2022/07/29 07:36:08;;;;;;;4.35;3.10;;;;;;;23.08;54.03;98723.33;1647956;87;25627;-55
2022/07/29 07:38:35;;;;;;;4.12;2.75;;;;;;;23.24;53.52;98720.13;1647696;87;25463;-57
2022/07/29 07:41:01;;;;;;;7.20;3.37;;;;;;;23.23;53.54;98722.73;1647620;87;25739;-58
2022/07/29 07:43:28;;;;;;;5.62;3.17;;;;;;;23.28;53.13;98727.91;1647988;86;25704;-56
2022/07/29 07:45:54;;;;;;;3.72;3.10;;;;;;;23.22;52.92;98728.91;1647650;87;27437;-57
2022/07/29 07:48:20;;;;;;;5.35;2.90;;;;;;;23.34;53.21;98724.14;1647944;87;25644;-56
2022/07/29 07:50:49;;;;;;;5.72;3.10;;;;;;;23.39;52.68;98727.95;1648001;87;25725;-56
2022/07/29 07:53:15;;;;;;;4.58;3.10;;;;;;;23.38;52.57;98727.75;1647756;87;26096;-57
2022/07/29 07:55:43;;;;;;;3.70;3.15;;;;;;;23.32;52.72;98732.92;1647923;86;25455;-57
2022/07/29 07:58:10;;;;;;;6.80;3.42;;;;;;;23.48;52.71;98720.55;1647941;86;28227;-56
2022/07/29 08:00:37;;;;;;;4.40;3.15;;;;;;;23.67;52.32;98724.34;1647535;87;25747;-56
2022/07/29 08:03:04;;;;;;;4.12;3.10;;;;;;;23.87;52.10;98726.71;1647771;87;25454;-57
2022/07/29 08:05:30;;;;;;;5.72;3.35;;;;;;;24.27;52.17;98725.82;1647966;87;25950;-63
2022/07/29 08:07:57;;;;;;;4.95;3.20;;;;;;;24.40;51.10;98721.95;1647665;87;25695;-60
2022/07/29 08:13:11;;;;;;;4.67;2.87;;;;;;;24.82;50.83;98716.55;1647594;87;25482;-57
2022/07/29 08:15:41;;;;;;;5.10;3.25;;;;;;;25.12;49.57;98724.17;1647703;86;25446;-57
2022/07/29 08:18:07;;;;;;;6.33;2.90;;;;;;;25.28;49.97;98718.05;1647752;86;25699;-59
2022/07/29 08:20:35;;;;;;;3.90;3.15;;;;;;;25.48;48.28;98725.30;1648110;87;25431;-61
2022/07/29 08:23:04;;;;;;;6.22;3.22;;;;;;;25.57;48.45;98729.03;1647840;86;27435;-57
2022/07/29 08:25:30;;;;;;;4.85;2.95;;;;;;;25.80;48.14;98729.04;1647696;87;25695;-60
2022/07/29 08:27:57;;;;;;;4.15;2.90;;;;;;;26.09;48.46;98725.12;1648086;87;25758;-56
2022/07/29 08:30:23;;;;;;;3.35;3.02;;;;;;;26.39;46.32;98724.39;1648039;87;26318;-57
2022/07/29 08:32:52;;;;;;;5.37;3.08;;;;;;;26.39;47.10;98712.37;1647939;87;25708;-57
2022/07/29 08:35:17;;;;;;;4.78;3.30;;;;;;;26.38;46.20;98714.97;1644797;86;26171;-57
2022/07/29 08:37:44;;;;;;;5.17;3.08;;;;;;;26.56;46.15;98714.14;1644905;87;25618;-57
2022/07/29 08:40:11;;;;;;;5.62;3.12;;;;;;;26.48;46.02;98714.66;1645150;87;25767;-57
2022/07/29 08:42:38;;;;;;;4.12;3.10;;;;;;;26.62;45.98;98712.27;1645200;87;25707;-60
2022/07/29 08:45:06;;;;;;;4.15;3.20;;;;;;;26.78;45.76;98709.62;1644829;87;25703;-65
2022/07/29 08:47:46;;;;;;;3.40;3.10;;;;;;;27.19;45.71;98705.61;1645075;87;27607;-65
2022/07/29 08:50:13;;;;;;;9.53;3.50;;;;;;;27.53;44.93;98704.66;1645332;87;25736;-58
2022/07/29 08:52:41;;;;;;;3.72;3.25;;;;;;;27.55;44.05;98704.22;1644888;87;25680;-57
2022/07/29 08:55:10;;;;;;;5.83;3.22;;;;;;;27.61;43.95;98705.92;1645115;87;25733;-57
2022/07/29 08:57:38;;;;;;;6.90;3.45;;;;;;;27.61;44.69;98715.17;1645179;87;25688;-57
2022/07/29 09:00:11;;;;;;;4.20;3.02;;;;;;;27.68;44.02;98715.06;1637069;87;27599;-57
2022/07/29 09:02:42;;;;;;;6.28;3.50;;;;;;;28.04;43.49;98707.94;1629362;87;25681;-57
2022/07/29 09:05:10;;;;;;;3.55;3.15;;;;;;;27.99;43.47;98702.03;1630110;87;25638;-54
2022/07/29 09:07:37;;;;;;;5.40;3.10;;;;;;;27.71;43.23;98700.73;1628619;87;25739;-55
2022/07/29 09:10:06;;;;;;;5.47;3.22;;;;;;;27.67;44.06;98691.56;1600156;88;25727;-54
2022/07/29 09:12:33;;;;;;;6.75;3.47;;;;;;;27.75;43.68;98697.23;1626165;88;28352;-54
2022/07/29 09:15:00;;;;;;;4.25;3.25;;;;;;;27.60;43.70;98696.67;1625837;88;25489;-54
2022/07/29 09:17:48;;;;;;;5.67;3.30;;;;;;;27.66;43.75;98697.80;1625936;88;25693;-55
2022/07/29 09:20:21;;;;;;;4.03;2.77;;;;;;;27.81;43.48;98705.36;1625910;88;25806;-54
2022/07/29 09:22:50;;;;;;;5.47;2.92;;;;;;;28.35;43.13;98704.77;1626392;88;25455;-55
2022/07/29 09:25:39;;;;;;;3.20;2.83;;;;;;;28.99;42.59;98706.59;1626131;88;27435;-54
2022/07/29 09:28:16;;;;;;;5.30;3.27;;;;;;;29.48;40.53;98702.18;1626105;88;25837;-53
2022/07/29 09:30:55;;;;;;;4.87;2.92;;;;;;;29.80;41.42;98694.91;1626264;88;25689;-54
2022/07/29 09:33:24;;;;;;;8.50;3.10;;;;;;;30.11;40.68;98695.07;1626340;88;26339;-54
2022/07/29 09:36:11;;;;;;;3.55;3.02;;;;;;;30.52;40.33;98690.66;1625910;87;25471;-56
2022/07/29 09:38:37;;;;;;;4.28;3.12;;;;;;;30.61;39.50;98690.60;1629873;87;26889;-56
2022/07/29 09:41:06;;;;;;;4.80;3.08;;;;;;;30.73;37.72;98693.26;1630160;88;25700;-59
2022/07/29 09:43:34;;;;;;;3.33;3.02;;;;;;;30.54;38.31;98700.11;1630291;88;25789;-57
2022/07/29 09:46:14;;;;;;;3.52;3.10;;;;;;;30.58;37.85;98699.38;1629946;88;25786;-59
2022/07/29 09:48:41;;;;;;;;;;;;;;;30.40;38.99;98694.27;1632463;88;25684;-58
2022/07/29 09:51:21;;;;;;;4.42;3.40;;;;;;;30.84;37.48;98692.95;1630192;88;27557;-60
2022/07/29 09:53:47;;;;;;;3.30;3.00;;;;;;;30.89;37.41;98683.30;1630231;88;25787;-54
2022/07/29 09:56:14;;;;;;;5.05;3.15;;;;;;;30.63;37.07;98681.86;1629963;88;25942;-56
2022/07/29 09:58:40;;;;;;;5.67;2.90;;;;;;;30.29;37.20;98683.27;1630143;88;26071;-56
2022/07/29 10:01:06;;;;;;;3.17;2.87;;;;;;;30.50;37.29;98683.25;1629965;88;25777;-56
2022/07/29 10:03:52;;;;;;;6.12;3.27;;;;;;;30.66;37.98;98682.98;1626266;88;28336;-59
2022/07/29 10:06:18;;;;;;;3.95;3.17;;;;;;;30.88;37.49;98678.86;1630223;88;25786;-64
2022/07/29 10:08:46;;;;;;;5.20;3.02;;;;;;;31.15;36.89;98669.73;1630315;88;25561;-56
2022/07/29 10:11:17;;;;;;;3.52;3.22;;;;;;;31.05;36.16;98667.41;1630252;88;25808;-57
2022/07/29 10:13:47;;;;;;;5.95;3.27;;;;;;;30.96;37.19;98668.73;1630277;88;25688;-62
2022/07/29 10:16:15;;;;;;;3.40;3.10;;;;;;;31.56;37.26;98667.16;1626665;88;27376;-61
2022/07/29 10:18:44;;;;;;;4.80;3.27;;;;;;;32.18;36.90;98669.98;1626094;88;25612;-61
2022/07/29 10:21:11;;;;;;;4.37;3.07;;;;;;;32.48;35.25;98668.27;1626437;87;25923;-56
2022/07/29 10:23:40;;;;;;;4.47;3.33;;;;;;;32.43;34.87;98669.66;1600628;88;25731;-57
2022/07/29 10:26:08;;;;;;;6.78;3.37;;;;;;;32.46;34.72;98658.66;1626094;88;26959;-57
2022/07/29 10:28:35;;;;;;;6.25;3.10;;;;;;;32.59;34.81;98657.95;1625877;88;28027;-57
2022/07/29 10:31:08;;;;;;;4.00;3.00;;;;;;;32.88;34.08;98649.70;1626085;88;25620;-56
2022/07/29 10:34:24;;;;;;;4.67;3.00;;;;;;;32.95;34.66;98647.17;1600521;88;25498;-57
2022/07/29 10:37:43;;;;;;;3.00;2.67;;;;;;;33.23;34.11;98647.89;1603961;89;27874;-56
2022/07/29 10:43:29;;;;;;;4.45;3.22;;;;;;;32.63;34.65;98652.12;1595294;89;25760;-56
2022/07/29 10:45:59;;;;;;;4.58;3.00;;;;;;;32.67;34.03;98647.11;1595466;89;25847;-56
2022/07/29 10:48:26;;;;;;;5.12;3.45;;;;;;;32.57;34.79;98650.53;1595205;89;25708;-55
2022/07/29 10:51:00;;;;;;;2.98;2.65;;;;;;;32.23;35.18;98648.76;1595478;89;25783;-56
2022/07/29 10:53:50;;;;;;;4.17;3.00;;;;;;;31.63;35.51;98647.06;1594125;89;25522;-56
2022/07/29 10:56:27;;;;;;;5.03;3.08;;;;;;;31.33;36.06;98652.14;1595432;89;27507;-55
2022/07/29 10:59:26;;;;;;;3.50;3.12;;;;;;;31.27;35.63;98649.10;1592906;89;25666;-55
2022/07/29 11:01:54;;;;;;;4.15;3.00;;;;;;;31.13;36.61;98651.80;1594119;89;25931;-56
2022/07/29 11:04:52;;;;;;;4.97;3.00;;;;;;;31.23;36.67;98649.05;1595139;89;25716;-57
2022/07/29 11:07:18;;;;;;;5.08;3.33;;;;;;;31.09;36.68;98648.30;1593498;89;25749;-59
2022/07/29 11:09:48;;;;;;;4.80;2.87;;;;;;;30.97;36.71;98643.45;1584627;90;27474;-55
2022/07/29 11:12:40;;;;;;;4.67;3.10;;;;;;;30.78;36.89;98647.48;1562392;90;25946;-62
2022/07/29 11:15:18;;;;;;;4.33;3.05;;;;;;;30.57;36.79;98645.48;1584796;90;25742;-59
2022/07/29 11:18:04;;;;;;;3.20;2.80;;;;;;;30.40;37.18;98649.81;1584700;90;25746;-59
2022/07/29 11:20:53;;;;;;;4.28;2.80;;;;;;;30.51;37.49;98655.78;1617628;88;25680;-60
2022/07/29 11:23:30;;;;;;;5.03;3.30;;;;;;;30.50;37.02;98654.17;1625994;88;27649;-55
2022/07/29 11:26:22;;;;;;;6.78;3.33;;;;;;;30.41;37.25;98655.66;1626203;88;25732;-59
2022/07/29 11:29:00;;;;;;;29.23;21.00;;;;;;;30.53;38.61;98654.07;1626156;88;25441;-59
2022/07/29 11:31:45;;;;;;;8.30;6.10;;;;;;;30.74;37.83;98648.97;1626094;88;25750;-54
2022/07/29 11:34:29;;;;;;;6.33;3.30;;;;;;;30.85;36.98;98647.88;1626186;87;25635;-54
2022/07/29 11:37:13;;;;;;;4.78;2.98;;;;;;;30.61;37.89;98650.41;1625975;88;27492;-57
2022/07/29 11:39:44;;;;;;;4.15;3.20;;;;;;;30.36;37.47;98654.02;1626253;88;25750;-54
2022/07/29 11:42:34;;;;;;;4.60;3.22;;;;;;;30.19;37.71;98648.42;1626330;88;25637;-58
2022/07/29 11:45:10;;;;;;;4.15;3.40;;;;;;;30.24;38.29;98650.70;1625926;88;27886;-65
2022/07/29 11:47:40;;;;;;;4.45;3.25;;;;;;;30.67;38.29;98645.77;1626073;88;25603;-55
2022/07/29 11:50:11;;;;;;;5.47;3.45;;;;;;;30.86;37.47;98641.77;1626163;88;27429;-54
2022/07/29 11:52:48;;;;;;;6.42;3.10;;;;;;;30.72;37.79;98646.44;1626040;88;25828;-53
2022/07/29 11:55:26;;;;;;;3.70;2.90;;;;;;;30.34;38.05;98645.98;1626244;88;25430;-52
2022/07/29 11:57:56;;;;;;;5.53;3.10;;;;;;;30.00;38.08;98644.52;1621599;88;25760;-54